Time;durP1;ratioP1;P1;durP2;ratioP2;P2;SDS_P1;SDS_P2;PMS_P1;PMS_P2;Temp;Humidity;BMP_temperature;BMP_pressure;BME280_temperature;BME280_humidity;BME280_pressure;Samples;Min_cycle;Max_cycle;Signal;HPM_P1;HPM_P2
2023/04/17 00:00:08;;;;;;;;;;;;;;;11.72;100.00;100078.88;5567777;32;34429;-68
2023/04/17 00:03:11;;;;;;;;;;;;;;;11.74;100.00;100078.72;5567692;32;34808;-67
2023/04/17 00:06:15;;;;;;;;;;;;;;;11.78;100.00;100077.34;5567752;32;34175;-68
2023/04/17 00:09:18;;;;;;;;;;;;;;;11.65;100.00;100074.47;5567735;32;34436;-67
2023/04/17 00:12:20;;;;;;;;;;;;;;;11.59;100.00;100086.62;5567642;32;34314;-67
2023/04/17 00:15:23;;;;;;;;;;;;;;;11.59;100.00;100083.16;5567600;32;34854;-68
2023/04/17 00:18:25;;;;;;;;;;;;;;;11.60;100.00;100075.00;5567481;32;34039;-67
2023/04/17 00:21:28;;;;;;;;;;;;;;;11.48;100.00;100073.78;5567590;32;34662;-67
2023/04/17 00:24:31;;;;;;;;;;;;;;;11.50;100.00;100077.09;5553889;32;34012;-67
2023/04/17 00:27:33;;;;;;;;;;;;;;;11.37;100.00;100078.72;5566624;32;34303;-67
2023/04/17 00:30:36;;;;;;;;;;;;;;;11.26;100.00;100069.38;5567477;32;34805;-67
2023/04/17 00:33:39;;;;;;;;;;;;;;;11.18;100.00;100064.94;5567720;32;34160;-67
2023/04/17 00:36:41;;;;;;;;;;;;;;;11.25;100.00;100067.72;5567457;32;34186;-68
2023/04/17 00:39:44;;;;;;;;;;;;;;;11.19;100.00;100071.06;5567438;32;34082;-67
2023/04/17 00:42:51;;;;;;;;;;;;;;;11.12;100.00;100070.16;5567094;32;34209;-68
2023/04/17 00:45:54;;;;;;;;;;;;;;;11.04;100.00;100079.00;5567041;32;34723;-67
2023/04/17 00:48:57;;;;;;;;;;;;;;;10.94;100.00;100072.28;5567105;32;34851;-68
2023/04/17 00:52:00;;;;;;;;;;;;;;;11.04;100.00;100071.03;5567283;32;34181;-68
2023/04/17 00:55:03;;;;;;;;;;;;;;;11.02;100.00;100067.75;5567579;32;34811;-68
2023/04/17 00:58:05;;;;;;;;;;;;;;;11.03;100.00;100069.41;5566245;32;34579;-67
2023/04/17 01:01:08;;;;;;;;;;;;;;;10.95;100.00;100065.97;5566523;32;34851;-68
2023/04/17 01:04:11;;;;;;;;;;;;;;;10.98;100.00;100065.62;5566882;32;34980;-67
2023/04/17 01:07:15;;;;;;;;;;;;;;;10.90;100.00;100062.00;5566833;32;32990;-67
2023/04/17 01:10:17;;;;;;;;;;;;;;;10.92;100.00;100071.63;5566771;32;34131;-67
2023/04/17 01:13:20;;;;;;;;;;;;;;;10.84;100.00;100067.22;5565987;32;34698;-67
2023/04/17 01:16:23;;;;;;;;;;;;;;;10.76;100.00;100065.44;5566730;32;34140;-66
2023/04/17 01:19:26;;;;;;;;;;;;;;;10.72;100.00;100064.13;5566622;32;35350;-68
2023/04/17 01:22:29;;;;;;;;;;;;;;;10.62;100.00;100074.16;5567297;32;35038;-67
2023/04/17 01:25:32;;;;;;;;;;;;;;;10.63;100.00;100070.50;5569429;32;34121;-67
2023/04/17 01:28:35;;;;;;;;;;;;;;;10.69;100.00;100069.81;5568301;32;34176;-67
2023/04/17 01:31:37;;;;;;;;;;;;;;;10.67;100.00;100065.66;5569039;32;32578;-67
2023/04/17 01:34:40;;;;;;;;;;;;;;;10.68;100.00;100062.03;5569354;32;33909;-67
2023/04/17 01:37:42;;;;;;;;;;;;;;;10.71;100.00;100069.62;5569101;32;34290;-66
2023/04/17 01:40:45;;;;;;;;;;;;;;;10.59;100.00;100060.44;5569028;32;33879;-67
2023/04/17 01:43:49;;;;;;;;;;;;;;;10.59;100.00;100058.59;5569013;32;33955;-67
2023/04/17 01:46:51;;;;;;;;;;;;;;;10.58;100.00;100049.00;5568823;32;34835;-68
2023/04/17 01:49:56;;;;;;;;;;;;;;;10.76;100.00;100057.47;5569215;32;34498;-67
2023/04/17 01:52:59;;;;;;;;;;;;;;;10.82;100.00;100054.13;5568298;32;34611;-68
2023/04/17 01:56:01;;;;;;;;;;;;;;;10.84;100.00;100053.97;5568984;32;33917;-67
2023/04/17 01:59:04;;;;;;;;;;;;;;;10.84;100.00;100060.06;5568754;32;34314;-68
2023/04/17 02:02:09;;;;;;;;;;;;;;;10.79;100.00;100059.78;5568274;32;34794;-67
2023/04/17 02:05:12;;;;;;;;;;;;;;;10.89;100.00;100059.56;5568742;32;34633;-67
2023/04/17 02:08:15;;;;;;;;;;;;;;;10.74;100.00;100061.31;5568745;32;34003;-68
2023/04/17 02:11:18;;;;;;;;;;;;;;;10.75;100.00;100063.78;5568095;32;34258;-68
2023/04/17 02:14:23;;;;;;;;;;;;;;;10.85;100.00;100068.84;5568203;32;34620;-68
2023/04/17 02:17:26;;;;;;;;;;;;;;;10.94;100.00;100059.81;5568174;32;34754;-68
2023/04/17 02:20:29;;;;;;;;;;;;;;;10.90;100.00;100059.34;5568655;32;34047;-68
2023/04/17 02:23:32;;;;;;;;;;;;;;;10.94;100.00;100065.13;5568645;32;34703;-68
2023/04/17 02:26:35;;;;;;;;;;;;;;;10.99;100.00;100060.13;5567631;32;34188;-68
2023/04/17 02:29:40;;;;;;;;;;;;;;;11.04;100.00;100059.56;5567801;32;34018;-68
2023/04/17 02:32:44;;;;;;;;;;;;;;;11.18;100.00;100062.28;5568562;32;34216;-68
2023/04/17 02:35:46;;;;;;;;;;;;;;;11.15;100.00;100057.34;5568020;32;33924;-68
2023/04/17 02:38:52;;;;;;;;;;;;;;;11.19;100.00;100063.94;5568951;32;34073;-68
2023/04/17 02:41:55;;;;;;;;;;;;;;;11.23;100.00;100062.56;5568318;32;34914;-68
2023/04/17 02:44:58;;;;;;;;;;;;;;;11.10;100.00;100056.22;5568383;32;34782;-68
2023/04/17 02:48:01;;;;;;;;;;;;;;;11.09;100.00;100059.88;5568455;32;34206;-68
2023/04/17 02:51:06;;;;;;;;;;;;;;;11.17;100.00;100059.81;5567515;32;34418;-68
2023/04/17 02:54:09;;;;;;;;;;;;;;;11.22;100.00;100060.09;5568450;32;34659;-68
2023/04/17 02:57:12;;;;;;;;;;;;;;;11.07;100.00;100057.41;5567512;32;34346;-68
2023/04/17 03:00:14;;;;;;;;;;;;;;;11.05;100.00;100066.53;5568376;32;34052;-68
2023/04/17 03:03:17;;;;;;;;;;;;;;;10.97;100.00;100058.66;5567390;32;34179;-67
2023/04/17 03:06:20;;;;;;;;;;;;;;;10.91;100.00;100062.84;5568503;32;34831;-68
2023/04/17 03:09:23;;;;;;;;;;;;;;;10.88;100.00;100066.69;5568539;32;34009;-68
2023/04/17 03:12:26;;;;;;;;;;;;;;;10.82;100.00;100064.75;5568194;32;33677;-67
2023/04/17 03:15:29;;;;;;;;;;;;;;;10.78;100.00;100065.28;5567263;32;34297;-67
2023/04/17 03:18:34;;;;;;;;;;;;;;;10.83;100.00;100071.69;5568126;32;34321;-67
2023/04/17 03:21:37;;;;;;;;;;;;;;;10.76;100.00;100073.41;5568391;32;34204;-67
2023/04/17 03:24:42;;;;;;;;;;;;;;;10.77;100.00;100063.63;5568470;32;33741;-67
2023/04/17 03:27:45;;;;;;;;;;;;;;;10.84;100.00;100059.25;5568154;32;33868;-68
2023/04/17 03:30:49;;;;;;;;;;;;;;;10.78;100.00;100065.28;5568031;32;34798;-68
2023/04/17 03:33:52;;;;;;;;;;;;;;;10.85;100.00;100067.03;5568298;32;34223;-68
2023/04/17 03:36:54;;;;;;;;;;;;;;;10.87;100.00;100062.38;5568053;32;34524;-68
2023/04/17 03:39:57;;;;;;;;;;;;;;;10.82;100.00;100066.56;5568094;32;33803;-68
2023/04/17 03:43:00;;;;;;;;;;;;;;;10.88;100.00;100066.69;5568121;32;33600;-68
2023/04/17 03:46:04;;;;;;;;;;;;;;;11.00;100.00;100066.25;5567406;32;34753;-68
2023/04/17 03:49:07;;;;;;;;;;;;;;;10.92;100.00;100072.47;5567111;32;33985;-68
2023/04/17 03:52:10;;;;;;;;;;;;;;;10.86;100.00;100074.00;5567896;32;35075;-68
2023/04/17 03:55:12;;;;;;;;;;;;;;;10.94;100.00;100070.44;5567066;32;34714;-69
2023/04/17 03:58:16;;;;;;;;;;;;;;;11.02;100.00;100080.19;5567333;32;34751;-68
2023/04/17 04:01:18;;;;;;;;;;;;;;;11.03;100.00;100071.22;5567825;32;34023;-67
2023/04/17 04:04:24;;;;;;;;;;;;;;;10.93;100.00;100076.78;5567942;32;34630;-68
2023/04/17 04:07:27;;;;;;;;;;;;;;;10.92;100.00;100083.06;5567480;32;34180;-67
2023/04/17 04:10:33;;;;;;;;;;;;;;;10.93;100.00;100079.44;5567525;32;34184;-68
2023/04/17 04:13:36;;;;;;;;;;;;;;;10.97;100.00;100085.19;5578915;31;34244;-68
2023/04/17 04:16:41;;;;;;;;;;;;;;;11.03;100.00;100081.84;5578175;31;34530;-67
2023/04/17 04:19:44;;;;;;;;;;;;;;;11.10;100.00;100090.72;5579270;31;34240;-68
2023/04/17 04:22:48;;;;;;;;;;;;;;;11.06;100.00;100084.97;5567576;32;35013;-70
2023/04/17 04:25:51;;;;;;;;;;;;;;;11.00;100.00;100083.00;5567422;32;34233;-68
2023/04/17 04:28:55;;;;;;;;;;;;;;;11.05;100.00;100082.47;5567745;32;34105;-69
2023/04/17 04:32:00;;;;;;;;;;;;;;;11.06;100.00;100086.78;5567481;32;34285;-69
2023/04/17 04:35:05;;;;;;;;;;;;;;;11.13;100.00;100099.19;5579874;31;34599;-68
2023/04/17 04:38:07;;;;;;;;;;;;;;;11.23;100.00;100099.75;5573005;31;34368;-68
2023/04/17 04:41:24;;;;;;;;;;;;;;;11.18;100.00;100112.72;5586778;31;34444;-68
2023/04/17 04:44:27;;;;;;;;;;;;;;;11.31;100.00;100120.09;5573080;31;34249;-68
2023/04/17 04:47:30;;;;;;;;;;;;;;;11.33;100.00;100118.06;5586149;31;34014;-68
2023/04/17 04:50:32;;;;;;;;;;;;;;;11.49;100.00;100125.09;5567067;31;34005;-67
2023/04/17 04:53:35;;;;;;;;;;;;;;;11.50;100.00;100122.25;5566849;32;34484;-68
2023/04/17 04:56:38;;;;;;;;;;;;;;;11.67;99.50;100126.41;5569176;31;33973;-68
2023/04/17 04:59:42;;;;;;;;;;;;;;;11.63;99.98;100130.44;5570839;31;34055;-68
2023/04/17 05:02:46;;;;;;;;;;;;;;;11.65;99.54;100136.41;5566909;32;34243;-68
2023/04/17 05:05:50;;;;;;;;;;;;;;;11.66;99.85;100139.91;5566070;32;35043;-69
2023/04/17 05:08:53;;;;;;;;;;;;;;;11.70;99.50;100135.87;5566796;32;34099;-67
2023/04/17 05:11:56;;;;;;;;;;;;;;;11.81;96.31;100138.13;5566357;32;34730;-68
2023/04/17 05:14:58;;;;;;;;;;;;;;;11.88;96.76;100138.19;5566633;32;34156;-68
2023/04/17 05:18:01;;;;;;;;;;;;;;;12.06;97.04;100133.34;5565750;31;34313;-68
2023/04/17 05:21:06;;;;;;;;;;;;;;;12.24;91.87;100144.47;5567067;31;33909;-68
2023/04/17 05:24:10;;;;;;;;;;;;;;;12.38;92.32;100148.94;5553067;32;35011;-67
2023/04/17 05:27:13;;;;;;;;;;;;;;;12.17;88.67;100147.03;5568739;31;34244;-68
2023/04/17 05:30:16;;;;;;;;;;;;;;;12.21;88.15;100147.47;5565942;31;33995;-68
2023/04/17 05:33:20;;;;;;;;;;;;;;;12.13;88.15;100144.91;5566189;31;34559;-68
2023/04/17 05:36:23;;;;;;;;;;;;;;;12.19;88.10;100144.19;5565454;31;34233;-67
2023/04/17 05:39:27;;;;;;;;;;;;;;;12.37;86.29;100144.63;5571977;31;33879;-68
2023/04/17 05:42:29;;;;;;;;;;;;;;;12.54;83.60;100143.41;5573264;31;34368;-69
2023/04/17 05:45:32;;;;;;;;;;;;;;;12.47;83.15;100145.16;5563679;31;33929;-69
2023/04/17 05:48:35;;;;;;;;;;;;;;;12.59;82.49;100156.16;5565883;31;34056;-69
2023/04/17 05:51:38;;;;;;;;;;;;;;;12.62;81.56;100153.97;5565630;32;34793;-69
2023/04/17 05:54:41;;;;;;;;;;;;;;;12.68;80.00;100148.91;5565184;32;34766;-69
2023/04/17 05:57:43;;;;;;;;;;;;;;;12.95;79.64;100157.00;5565158;32;33986;-68
2023/04/17 06:00:46;;;;;;;;;;;;;;;12.97;77.12;100162.94;5573715;31;35112;-68
2023/04/17 06:03:49;;;;;;;;;;;;;;;13.05;76.89;100165.50;5568656;31;34818;-66
2023/04/17 06:06:52;;;;;;;;;;;;;;;13.14;76.37;100171.56;5564941;32;33975;-68
2023/04/17 06:09:56;;;;;;;;;;;;;;;13.02;76.14;100173.84;5576563;31;34025;-67
2023/04/17 06:12:59;;;;;;;;;;;;;;;13.02;75.41;100173.06;5587647;31;35152;-70
2023/04/17 06:16:02;;;;;;;;;;;;;;;13.26;75.37;100174.56;5580303;31;34104;-67
2023/04/17 06:19:04;;;;;;;;;;;;;;;13.27;73.73;100176.19;5552572;32;34792;-67
2023/04/17 06:22:08;;;;;;;;;;;;;;;13.47;74.44;100175.38;5570256;31;34379;-67
2023/04/17 06:25:14;;;;;;;;;;;;;;;13.65;71.73;100174.09;5572266;31;34448;-68
2023/04/17 06:28:16;;;;;;;;;;;;;;;13.55;73.45;100174.44;5570531;31;34163;-69
2023/04/17 06:31:19;;;;;;;;;;;;;;;13.61;72.12;100178.97;5573817;31;34212;-68
2023/04/17 06:34:22;;;;;;;;;;;;;;;13.99;70.36;100184.00;5568621;32;34248;-68
2023/04/17 06:37:24;;;;;;;;;;;;;;;14.04;67.77;100185.03;5568358;32;34217;-68
2023/04/17 06:40:27;;;;;;;;;;;;;;;13.65;69.84;100185.56;5571571;31;34596;-69
2023/04/17 06:43:29;;;;;;;;;;;;;;;13.65;70.29;100182.09;5572567;31;34293;-70
2023/04/17 06:46:35;;;;;;;;;;;;;;;13.93;69.90;100182.94;5571895;31;34047;-68
2023/04/17 06:49:38;;;;;;;;;;;;;;;14.08;69.38;100177.50;5569323;31;34018;-67
2023/04/17 06:52:41;;;;;;;;;;;;;;;14.03;68.23;100191.41;5570408;31;34104;-68
2023/04/17 06:55:44;;;;;;;;;;;;;;;14.27;67.25;100195.47;5575668;31;34150;-68
2023/04/17 06:58:47;;;;;;;;;;;;;;;14.43;67.04;100195.16;5567628;32;34010;-68
2023/04/17 07:01:49;;;;;;;;;;;;;;;14.51;65.62;100183.50;5571468;31;34766;-68
2023/04/17 07:04:53;;;;;;;;;;;;;;;14.32;66.12;100193.03;5572137;31;33879;-69
2023/04/17 07:07:56;;;;;;;;;;;;;;;14.42;67.43;100192.72;5567551;32;34796;-68
2023/04/17 07:10:59;;;;;;;;;;;;;;;14.50;65.93;100198.69;5541224;32;34601;-68
2023/04/17 07:14:01;;;;;;;;;;;;;;;14.55;66.37;100190.94;5567437;32;34735;-68
2023/04/17 07:17:05;;;;;;;;;;;;;;;14.96;64.03;100190.06;5567974;32;34378;-68
2023/04/17 07:20:08;;;;;;;;;;;;;;;14.81;63.84;100192.91;5567189;32;34278;-69
2023/04/17 07:23:10;;;;;;;;;;;;;;;15.07;63.49;100192.97;5580020;31;34633;-68
2023/04/17 07:26:13;;;;;;;;;;;;;;;15.06;63.57;100209.19;5587524;31;34720;-69
2023/04/17 07:29:16;;;;;;;;;;;;;;;15.20;62.89;100193.00;5587302;31;33861;-69
2023/04/17 07:32:19;;;;;;;;;;;;;;;15.33;61.74;100196.75;5587351;31;34877;-67
2023/04/17 07:35:22;;;;;;;;;;;;;;;14.96;63.59;100193.53;5582379;31;34591;-68
2023/04/17 07:38:25;;;;;;;;;;;;;;;15.81;61.95;100200.94;5565904;31;33988;-68
2023/04/17 07:41:27;;;;;;;;;;;;;;;16.11;60.71;100195.16;5566942;32;34799;-69
2023/04/17 07:44:30;;;;;;;;;;;;;;;16.18;59.33;100203.97;5567226;32;35081;-68
2023/04/17 07:47:33;;;;;;;;;;;;;;;15.96;59.86;100206.06;5575391;31;34846;-69
2023/04/17 07:50:35;;;;;;;;;;;;;;;16.41;59.24;100207.84;5587717;31;34766;-68
2023/04/17 07:53:38;;;;;;;;;;;;;;;15.87;60.78;100208.12;5573466;31;34214;-68
2023/04/17 07:56:41;;;;;;;;;;;;;;;16.71;58.84;100212.72;5587149;31;34105;-69
2023/04/17 07:59:45;;;;;;;;;;;;;;;17.29;56.30;100214.31;5583458;31;33978;-69
2023/04/17 08:02:48;;;;;;;;;;;;;;;19.11;52.26;100219.25;5567088;32;34111;-69
2023/04/17 08:05:52;;;;;;;;;;;;;;;18.44;53.34;100215.69;5570487;31;34120;-68
2023/04/17 08:08:55;;;;;;;;;;;;;;;17.88;53.47;100210.41;5567678;32;33885;-72
2023/04/17 08:11:58;;;;;;;;;;;;;;;18.90;52.34;100206.28;5567510;32;34077;-69
2023/04/17 08:15:01;;;;;;;;;;;;;;;19.62;50.50;100207.16;5567206;32;34214;-70
2023/04/17 08:18:03;;;;;;;;;;;;;;;19.48;50.31;100206.53;5579419;31;34353;-70
2023/04/17 08:21:07;;;;;;;;;;;;;;;19.10;51.01;100209.53;5587125;31;34856;-70
2023/04/17 08:24:10;;;;;;;;;;;;;;;19.38;50.44;100206.25;5573310;31;34119;-70
2023/04/17 08:27:13;;;;;;;;;;;;;;;18.96;50.88;100210.75;5582855;31;33389;-70
2023/04/17 08:30:16;;;;;;;;;;;;;;;19.93;48.90;100212.25;5567415;31;34168;-71
2023/04/17 08:33:20;;;;;;;;;;;;;;;20.27;48.58;100202.53;5564818;32;33914;-69
2023/04/17 08:36:23;;;;;;;;;;;;;;;20.12;48.35;100211.09;5566643;32;34195;-71
2023/04/17 08:39:26;;;;;;;;;;;;;;;20.57;47.40;100203.25;5569580;31;34733;-69
2023/04/17 08:42:31;;;;;;;;;;;;;;;21.94;44.80;100209.34;5572761;31;34508;-69
2023/04/17 08:45:34;;;;;;;;;;;;;;;21.45;44.63;100205.50;5572217;31;34067;-69
2023/04/17 08:48:37;;;;;;;;;;;;;;;20.54;47.94;100202.87;5585991;31;34209;-69
2023/04/17 08:51:40;;;;;;;;;;;;;;;20.55;48.10;100202.66;5566944;31;34468;-69
2023/04/17 08:54:43;;;;;;;;;;;;;;;18.62;52.14;100207.66;5566762;31;34197;-69
2023/04/17 08:57:59;;;;;;;;;;;;;;;18.84;52.82;100199.09;5566625;32;34496;-69
2023/04/17 09:01:10;;;;;;;;;;;;;;;19.22;52.69;100198.84;5566611;32;34407;-69
2023/04/17 09:04:32;;;;;;;;;;;;;;;18.86;53.36;100197.84;5566408;32;34065;-69
2023/04/17 09:07:35;;;;;;;;;;;;;;;18.57;54.88;100201.31;5565909;32;34811;-70
2023/04/17 09:10:41;;;;;;;;;;;;;;;20.70;49.44;100194.06;5566355;32;34088;-70
2023/04/17 09:13:45;;;;;;;;;;;;;;;20.28;49.36;100201.50;5565757;32;33968;-70
2023/04/17 09:16:54;;;;;;;;;;;;;;;21.33;47.09;100204.78;5566666;32;35165;-70
2023/04/17 09:20:01;;;;;;;;;;;;;;;21.43;47.05;100191.47;5566094;32;34290;-68
2023/04/17 09:23:04;;;;;;;;;;;;;;;19.92;49.45;100207.91;5566274;32;33936;-69
2023/04/17 09:26:08;;;;;;;;;;;;;;;20.60;48.20;100210.84;5564953;32;34597;-68
2023/04/17 09:29:12;;;;;;;;;;;;;;;19.65;50.66;100204.84;5566512;32;34954;-69
2023/04/17 09:32:15;;;;;;;;;;;;;;;19.88;50.06;100194.09;5565810;32;34743;-67
2023/04/17 09:35:27;;;;;;;;;;;;;;;20.56;47.96;100203.47;5566056;32;34856;-71
2023/04/17 09:38:36;;;;;;;;;;;;;;;19.34;50.92;100203.19;5565907;32;34838;-70
2023/04/17 09:41:39;;;;;;;;;;;;;;;20.32;49.33;100191.91;5565996;32;34809;-70
2023/04/17 09:44:43;;;;;;;;;;;;;;;22.67;44.39;100191.19;5567759;31;33194;-71
2023/04/17 09:47:46;;;;;;;;;;;;;;;21.91;44.86;100200.88;5576657;31;33879;-69
2023/04/17 09:50:53;;;;;;;;;;;;;;;21.05;45.64;100186.69;5568671;32;34132;-71
2023/04/17 09:53:58;;;;;;;;;;;;;;;19.66;48.69;100192.19;5568641;31;33944;-69
2023/04/17 09:57:07;;;;;;;;;;;;;;;20.22;48.90;100188.94;5568768;32;35209;-69
2023/04/17 10:00:13;;;;;;;;;;;;;;;19.84;49.35;100190.25;5567903;31;34111;-72
2023/04/17 10:03:17;;;;;;;;;;;;;;;20.02;49.86;100189.31;5570480;31;34880;-70
2023/04/17 10:06:19;;;;;;;;;;;;;;;18.89;51.07;100175.87;5568527;32;34657;-71
2023/04/17 10:09:23;;;;;;;;;;;;;;;18.76;51.41;100172.56;5568272;32;34137;-69
2023/04/17 10:12:25;;;;;;;;;;;;;;;18.32;53.58;100169.09;5568992;32;34076;-71
2023/04/17 10:15:29;;;;;;;;;;;;;;;19.19;51.33;100167.81;5554747;32;34081;-69
2023/04/17 10:18:32;;;;;;;;;;;;;;;19.20;50.79;100166.78;5580241;31;33783;-69
2023/04/17 10:21:34;;;;;;;;;;;;;;;19.33;50.92;100171.12;5568544;32;33824;-69
2023/04/17 10:24:37;;;;;;;;;;;;;;;19.18;49.63;100166.19;5560678;32;34343;-69
2023/04/17 10:27:40;;;;;;;;;;;;;;;19.28;50.53;100160.25;5554456;32;34266;-69
2023/04/17 10:30:50;;;;;;;;;;;;;;;19.95;48.57;100161.66;5569871;31;34507;-69
2023/04/17 10:33:55;;;;;;;;;;;;;;;19.11;50.47;100165.47;5581005;31;34043;-69
2023/04/17 10:37:00;;;;;;;;;;;;;;;19.01;50.72;100160.62;5587784;31;34265;-69
2023/04/17 10:40:08;;;;;;;;;;;;;;;18.86;50.85;100164.78;5583053;31;33963;-69
2023/04/17 10:43:12;;;;;;;;;;;;;;;18.80;50.18;100155.75;5587688;31;34127;-68
2023/04/17 10:46:14;;;;;;;;;;;;;;;18.48;51.19;100154.25;5588050;31;34202;-68
2023/04/17 10:49:19;;;;;;;;;;;;;;;18.97;51.63;100153.25;5587527;31;33982;-67
2023/04/17 10:52:31;;;;;;;;;;;;;;;18.74;50.58;100156.66;5582800;31;34126;-68
2023/04/17 10:55:46;;;;;;;;;;;;;;;18.89;49.72;100164.31;5566534;32;34647;-68
2023/04/17 10:58:57;;;;;;;;;;;;;;;19.59;48.84;100162.69;5566275;31;34094;-69
2023/04/17 11:02:03;;;;;;;;;;;;;;;18.22;50.50;100163.44;5581657;31;34139;-69
2023/04/17 11:05:06;;;;;;;;;;;;;;;18.39;51.49;100153.75;5568229;31;34162;-69
2023/04/17 11:08:10;;;;;;;;;;;;;;;18.34;52.10;100153.59;5567738;32;34140;-69
2023/04/17 11:11:13;;;;;;;;;;;;;;;19.29;50.18;100157.34;5582321;31;34888;-70
2023/04/17 11:14:21;;;;;;;;;;;;;;;19.26;50.90;100154.28;5587296;31;34852;-68
2023/04/17 11:17:24;;;;;;;;;;;;;;;19.25;51.12;100156.16;5572853;31;34327;-70
2023/04/17 11:20:28;;;;;;;;;;;;;;;19.18;50.48;100159.97;5588384;31;34846;-69
2023/04/17 11:23:32;;;;;;;;;;;;;;;20.58;47.98;100153.66;5576360;31;34893;-69
2023/04/17 11:26:45;;;;;;;;;;;;;;;20.72;47.78;100156.91;5590008;31;34784;-69
2023/04/17 11:29:48;;;;;;;;;;;;;;;20.94;46.96;100157.88;5589925;31;34145;-69
2023/04/17 11:32:51;;;;;;;;;;;;;;;19.47;49.56;100149.22;5589780;31;35096;-68
2023/04/17 11:35:54;;;;;;;;;;;;;;;20.35;48.55;100148.31;5589781;31;34925;-68
2023/04/17 11:38:57;;;;;;;;;;;;;;;21.31;45.28;100149.41;5589903;31;34269;-70
2023/04/17 11:42:03;;;;;;;;;;;;;;;21.92;44.53;100149.34;5589697;31;34272;-69
2023/04/17 11:45:06;;;;;;;;;;;;;;;22.20;44.33;100144.88;5589568;31;34148;-68
2023/04/17 11:48:10;;;;;;;;;;;;;;;21.70;44.76;100137.62;5589986;31;34334;-68
2023/04/17 11:51:16;;;;;;;;;;;;;;;21.31;45.36;100127.81;5589644;31;34388;-69
2023/04/17 11:54:27;;;;;;;;;;;;;;;20.75;46.74;100145.66;5589726;31;34796;-69
2023/04/17 11:57:39;;;;;;;;;;;;;;;19.14;50.33;100137.28;5589818;31;34110;-72
2023/04/17 12:00:42;;;;;;;;;;;;;;;18.46;51.74;100134.84;5576431;31;34835;-69
2023/04/17 12:03:48;;;;;;;;;;;;;;;18.51;52.11;100149.25;5575849;31;34408;-68
2023/04/17 12:06:51;;;;;;;;;;;;;;;18.45;53.96;100138.56;5589250;31;34088;-69
2023/04/17 12:09:55;;;;;;;;;;;;;;;18.04;54.22;100139.25;5589841;31;34854;-69
2023/04/17 12:12:58;;;;;;;;;;;;;;;17.80;53.96;100132.88;5590173;31;34176;-70
2023/04/17 12:16:00;;;;;;;;;;;;;;;18.29;53.72;100144.56;5592479;31;34100;-70
2023/04/17 12:19:03;;;;;;;;;;;;;;;19.01;51.55;100146.38;5589612;31;34186;-69
2023/04/17 12:22:05;;;;;;;;;;;;;;;18.71;52.20;100143.66;5589299;31;34283;-69
2023/04/17 12:25:08;;;;;;;;;;;;;;;18.53;52.32;100139.16;5589304;31;34195;-68
2023/04/17 12:28:10;;;;;;;;;;;;;;;18.49;52.00;100137.91;5589803;31;34896;-69
2023/04/17 12:31:13;;;;;;;;;;;;;;;19.24;51.87;100138.38;5589892;31;34293;-69
2023/04/17 12:34:15;;;;;;;;;;;;;;;19.42;48.97;100132.09;5589242;31;34437;-70
2023/04/17 12:37:18;;;;;;;;;;;;;;;19.68;50.69;100130.88;5589196;31;34392;-69
2023/04/17 12:40:22;;;;;;;;;;;;;;;19.78;49.71;100137.31;5575846;31;34282;-69
2023/04/17 12:43:26;;;;;;;;;;;;;;;18.55;52.02;100133.53;5589038;31;34455;-70
2023/04/17 12:46:31;;;;;;;;;;;;;;;20.03;48.67;100122.81;5589704;31;34367;-70
2023/04/17 12:49:34;;;;;;;;;;;;;;;20.55;47.82;100118.28;5589164;31;34253;-69
2023/04/17 12:52:37;;;;;;;;;;;;;;;20.37;47.46;100124.66;5589424;31;34057;-70
2023/04/17 12:55:40;;;;;;;;;;;;;;;20.24;47.56;100114.09;5589208;31;34739;-69
2023/04/17 12:58:42;;;;;;;;;;;;;;;19.60;49.63;100107.00;5589038;31;34785;-69
2023/04/17 13:01:45;;;;;;;;;;;;;;;19.63;49.08;100096.59;5589317;31;34843;-72
2023/04/17 13:04:51;;;;;;;;;;;;;;;19.66;50.05;100093.41;5588885;31;35082;-71
2023/04/17 13:07:55;;;;;;;;;;;;;;;20.39;48.52;100098.28;5588887;31;34856;-69
2023/04/17 13:10:58;;;;;;;;;;;;;;;19.37;50.13;100092.44;5589265;31;34314;-69
2023/04/17 13:14:01;;;;;;;;;;;;;;;19.01;51.94;100095.28;5588434;31;34250;-70
2023/04/17 13:17:04;;;;;;;;;;;;;;;18.83;52.67;100096.16;5588623;31;34502;-69
2023/04/17 13:20:06;;;;;;;;;;;;;;;19.04;53.49;100086.75;5591149;31;34436;-70
2023/04/17 13:23:10;;;;;;;;;;;;;;;18.83;54.99;100077.34;5590702;31;34262;-70
2023/04/17 13:26:13;;;;;;;;;;;;;;;18.56;56.00;100081.44;5591143;31;34831;-68
2023/04/17 13:29:16;;;;;;;;;;;;;;;18.29;58.02;100088.19;5577103;31;34160;-70
2023/04/17 13:32:21;;;;;;;;;;;;;;;17.76;60.07;100096.81;5577508;31;34260;-70
2023/04/17 13:35:24;;;;;;;;;;;;;;;17.47;63.18;100110.84;5590800;31;34312;-71
2023/04/17 13:38:27;;;;;;;;;;;;;;;16.85;74.96;100117.88;5590781;31;34868;-71
2023/04/17 13:41:30;;;;;;;;;;;;;;;15.72;93.17;100118.44;5590936;31;34236;-70
2023/04/17 13:44:32;;;;;;;;;;;;;;;15.18;100.00;100111.41;5590918;31;33470;-71
2023/04/17 13:47:35;;;;;;;;;;;;;;;14.58;100.00;100107.75;5590847;31;34243;-70
2023/04/17 13:50:37;;;;;;;;;;;;;;;14.44;100.00;100103.41;5590864;31;34223;-70
2023/04/17 13:53:40;;;;;;;;;;;;;;;14.17;100.00;100098.94;5591062;31;34100;-70
2023/04/17 13:56:44;;;;;;;;;;;;;;;14.19;100.00;100095.03;5590697;31;34282;-70
2023/04/17 13:59:47;;;;;;;;;;;;;;;14.27;100.00;100102.06;5590201;31;34165;-70
2023/04/17 14:02:49;;;;;;;;;;;;;;;14.21;100.00;100090.34;5590868;31;34124;-69
2023/04/17 14:05:52;;;;;;;;;;;;;;;14.29;100.00;100095.50;5590421;31;34893;-70
2023/04/17 14:08:55;;;;;;;;;;;;;;;14.41;100.00;100079.78;5590914;31;34244;-69
2023/04/17 14:11:58;;;;;;;;;;;;;;;14.71;100.00;100080.28;5590706;31;34193;-68
2023/04/17 14:15:00;;;;;;;;;;;;;;;15.11;100.00;100089.19;5590260;31;34471;-68
2023/04/17 14:18:03;;;;;;;;;;;;;;;15.56;100.00;100091.09;5590445;31;34402;-68
2023/04/17 14:21:06;;;;;;;;;;;;;;;15.63;100.00;100086.56;5590141;31;34168;-68
2023/04/17 14:24:08;;;;;;;;;;;;;;;15.88;100.00;100084.03;5590265;31;34232;-68
2023/04/17 14:27:11;;;;;;;;;;;;;;;16.22;100.00;100082.91;5590268;31;34194;-68
2023/04/17 14:30:13;;;;;;;;;;;;;;;16.38;100.00;100078.94;5590646;31;34785;-68
2023/04/17 14:33:16;;;;;;;;;;;;;;;16.74;100.00;100078.38;5590128;31;34840;-68
2023/04/17 14:36:18;;;;;;;;;;;;;;;16.42;92.96;100078.28;5590131;31;35085;-68
2023/04/17 14:39:21;;;;;;;;;;;;;;;16.49;91.45;100076.41;5590185;31;34840;-68
2023/04/17 14:42:24;;;;;;;;;;;;;;;16.45;88.80;100074.37;5589936;31;34976;-69
2023/04/17 14:45:27;;;;;;;;;;;;;;;16.07;81.56;100068.97;5588179;31;59872;-68
2023/04/17 14:48:29;;;;;;;;;;;;;;;16.02;85.27;100066.91;5590299;31;34354;-68
2023/04/17 14:51:35;;;;;;;;;;;;;;;16.20;83.88;100073.44;5589917;31;34939;-68
2023/04/17 14:54:38;;;;;;;;;;;;;;;16.15;80.92;100073.25;5576295;31;34765;-68
2023/04/17 14:57:41;;;;;;;;;;;;;;;16.69;81.26;100072.84;5589449;31;34683;-68
2023/04/17 15:00:43;;;;;;;;;;;;;;;16.95;73.81;100070.81;5589933;31;34214;-69
2023/04/17 15:03:46;;;;;;;;;;;;;;;16.69;76.72;100071.00;5589994;31;34815;-69
2023/04/17 15:06:50;;;;;;;;;;;;;;;16.37;75.98;100061.22;5589870;31;34337;-68
2023/04/17 15:09:53;;;;;;;;;;;;;;;16.49;77.38;100067.56;5575951;31;34340;-68
2023/04/17 15:12:59;;;;;;;;;;;;;;;16.52;76.50;100067.13;5589400;31;34125;-68
2023/04/17 15:16:01;;;;;;;;;;;;;;;16.55;75.92;100071.25;5590240;31;34785;-69
2023/04/17 15:19:04;;;;;;;;;;;;;;;16.38;76.37;100078.94;5589447;31;34160;-68
2023/04/17 15:22:07;;;;;;;;;;;;;;;16.36;77.70;100076.44;5589848;31;34220;-69
2023/04/17 15:25:09;;;;;;;;;;;;;;;16.20;77.37;100066.25;5589742;31;34161;-69
2023/04/17 15:28:12;;;;;;;;;;;;;;;16.18;77.91;100073.66;5589622;31;34177;-69
2023/04/17 15:31:14;;;;;;;;;;;;;;;16.04;77.54;100074.72;5589771;31;34185;-68
2023/04/17 15:34:17;;;;;;;;;;;;;;;16.02;77.93;100074.94;5576131;31;34868;-69
2023/04/17 15:37:19;;;;;;;;;;;;;;;16.01;79.34;100072.50;5589668;31;34505;-69